Lefturn — WDG9919 — position and weather

sailwx.info

Track history (hours):
 
Tides and Currents Weather Stations Pressure Air Temp Water Temp Dewpoint Dewpoint Depression Visibility Wind Speed Wind Dir Waves Ship Positions

Lefturn

Owner: Gallagher, Spencer R, Ft. Lauderdale, FL. More information available from US FCC via Universal Licensing System.

Last reported at 2017-Sep-22 01:55 UTC. Time now 2017-Sep-22 22:42 UTC.
Position N 25°46' W 080°11'.

Length 23 m.

Type: Pleasure craft. MMSI: 367592530.

Date/timePositionNaut miles runAvg speedWind from/ knotsBaromVisibWave heightAir tempDewpointWater temp
2017-Sep-22 01:55N 25°46' W 080°11'0 0.0
2017-Sep-22 01:28N 25°46' W 080°11'0 0.4
2017-Sep-22 01:00N 25°46' W 080°11'3 5.2
2017-Sep-22 00:30N 25°44' W 080°11'2 4.6
2017-Sep-22 00:00N 25°41' W 080°11'0 0.0
2017-Sep-21 23:27N 25°41' W 080°11'0 0.0
2017-Sep-21 22:45N 25°41' W 080°11'0 0.0
2017-Sep-21 22:21N 25°41' W 080°11'0 0.0
2017-Sep-21 20:57N 25°41' W 080°11'2 2.1
2017-Sep-21 20:04N 25°43' W 080°11'2 8.4
2017-Sep-21 19:52N 25°45' W 080°11'1 3.0
2017-Sep-21 19:25N 25°46' W 080°11'0 0.0
2017-Sep-21 18:55N 25°46' W 080°11'0 0.0
2017-Sep-21 18:28N 25°46' W 080°11'0 0.0
2017-Sep-21 17:55N 25°46' W 080°11'0 0.1
2017-Sep-21 17:28N 25°46' W 080°11'0 0.0
2017-Sep-21 16:52N 25°46' W 080°11'0 0.0
2017-Sep-21 16:25N 25°46' W 080°11'0 0.0
2017-Sep-21 15:55N 25°46' W 080°11'0 0.0
2017-Sep-21 15:28N 25°46' W 080°11'0 0.1
2017-Sep-21 14:58N 25°46' W 080°11'0 0.0
2017-Sep-21 14:19N 25°46' W 080°11'0 0.0
2017-Sep-21 13:55N 25°46' W 080°11'0 0.0
2017-Sep-21 13:13N 25°46' W 080°11'0 0.0
2017-Sep-21 12:49N 25°46' W 080°11'0 0.0
2017-Sep-21 12:28N 25°46' W 080°11'0 0.0
2017-Sep-21 11:43N 25°46' W 080°11'0 0.0
2017-Sep-21 11:28N 25°46' W 080°11'0 0.0
2017-Sep-21 10:49N 25°46' W 080°11'0 0.0
2017-Sep-21 10:25N 25°46' W 080°11'0 0.0
2017-Sep-21 09:55N 25°46' W 080°11'0 0.0
2017-Sep-21 09:13N 25°46' W 080°11'0 0.0
2017-Sep-21 08:55N 25°46' W 080°11'0 0.0
2017-Sep-21 08:25N 25°46' W 080°11'0 0.0
2017-Sep-21 07:55N 25°46' W 080°11'0 0.0
2017-Sep-21 07:22N 25°46' W 080°11'0 0.0
2017-Sep-21 06:49N 25°46' W 080°11'0 0.0
2017-Sep-21 06:28N 25°46' W 080°11'0 0.0
2017-Sep-21 05:49N 25°46' W 080°11'0 0.0
2017-Sep-21 05:28N 25°46' W 080°11'0 0.0
2017-Sep-21 04:52N 25°46' W 080°11'0 0.0
2017-Sep-21 04:16N 25°46' W 080°11'0 0.0
2017-Sep-21 03:49N 25°46' W 080°11'0 0.0
2017-Sep-21 03:28N 25°46' W 080°11'0 0.0
2017-Sep-21 02:52N 25°46' W 080°11'0 0.0
2017-Sep-21 02:28N 25°46' W 080°11'0 0.0
2017-Sep-21 01:52N 25°46' W 080°11'0 0.0
2017-Sep-21 01:25N 25°46' W 080°11'0 0.0
2017-Sep-21 00:58N 25°46' W 080°11'0 0.0
2017-Sep-21 00:28N 25°46' W 080°11'0 0.0
2017-Sep-20 23:46N 25°46' W 080°11'0 0.0
2017-Sep-20 23:28N 25°46' W 080°11'0 0.0
2017-Sep-20 22:55N 25°46' W 080°11'0 0.0
2017-Sep-20 22:25N 25°46' W 080°11'0 0.0
2017-Sep-20 21:55N 25°46' W 080°11'2 6.0
2017-Sep-20 21:30N 25°46' W 080°09'1 2.4
2017-Sep-20 20:58N 25°47' W 080°09'1 3.2
2017-Sep-20 20:30N 25°46' W 080°11'5 1.0
2017-Sep-20 15:19N 25°41' W 080°11'2 6.3
2017-Sep-20 14:58N 25°44' W 080°11'3 2.7
2017-Sep-20 14:00N 25°46' W 080°12'0 0.4
2017-Sep-20 13:28N 25°46' W 080°11'0 0.0
2017-Sep-20 12:58N 25°46' W 080°11'0 0.0
2017-Sep-20 12:28N 25°46' W 080°11'0 0.0
2017-Sep-20 11:58N 25°46' W 080°11'0 0.0
2017-Sep-20 11:28N 25°46' W 080°11'0 0.0
2017-Sep-20 10:58N 25°46' W 080°11'0 0.0
2017-Sep-20 10:28N 25°46' W 080°11'0 0.0
2017-Sep-20 09:58N 25°46' W 080°11'0 0.0
2017-Sep-20 09:28N 25°46' W 080°11'0 0.0
2017-Sep-20 08:58N 25°46' W 080°11'0 0.0
2017-Sep-20 08:25N 25°46' W 080°11'0 0.0
2017-Sep-20 07:58N 25°46' W 080°11'0 0.0
2017-Sep-20 07:28N 25°46' W 080°11'0 0.0
2017-Sep-20 06:58N 25°46' W 080°11'0 0.0
2017-Sep-20 06:22N 25°46' W 080°11'0 0.0
2017-Sep-20 05:58N 25°46' W 080°11'0 0.0
2017-Sep-20 05:25N 25°46' W 080°11'0 0.0
2017-Sep-20 04:58N 25°46' W 080°11'0 0.0
2017-Sep-20 04:22N 25°46' W 080°11'0 0.0
2017-Sep-20 03:52N 25°46' W 080°11'0 0.0
2017-Sep-20 03:28N 25°46' W 080°11'0 0.0
2017-Sep-20 02:58N 25°46' W 080°11'0 0.0
2017-Sep-20 02:28N 25°46' W 080°11'0 0.0
2017-Sep-20 01:52N 25°46' W 080°11'0 0.0
2017-Sep-20 01:28N 25°46' W 080°11'0 0.0
2017-Sep-20 00:58N 25°46' W 080°11'0 0.0
2017-Sep-20 00:25N 25°46' W 080°11'0 0.0
2017-Sep-19 23:58N 25°46' W 080°11'0 0.0
2017-Sep-19 23:28N 25°46' W 080°11'0 0.0
2017-Sep-19 22:58N 25°46' W 080°11'0 0.0
2017-Sep-19 22:22N 25°46' W 080°11'0 0.0
2017-Sep-19 21:52N 25°46' W 080°11'0 0.0
2017-Sep-19 21:28N 25°46' W 080°11'0 0.0
2017-Sep-19 20:58N 25°46' W 080°11'0 0.0
2017-Sep-19 20:28N 25°46' W 080°11'0 0.0
2017-Sep-19 19:58N 25°46' W 080°11'0 0.1
2017-Sep-19 19:28N 25°46' W 080°11'0 0.0
2017-Sep-19 18:58N 25°46' W 080°11'0 0.0
2017-Sep-19 18:28N 25°46' W 080°11'0 0.0
2017-Sep-19 17:58N 25°46' W 080°11'0 0.0
2017-Sep-19 17:25N 25°46' W 080°11'0 0.0
2017-Sep-19 16:58N 25°46' W 080°11'0 0.0
2017-Sep-19 16:28N 25°46' W 080°11'0 0.0
2017-Sep-19 15:58N 25°46' W 080°11'0 0.0
2017-Sep-19 15:28N 25°46' W 080°11'0 0.0
2017-Sep-19 14:55N 25°46' W 080°11'0 0.0
2017-Sep-19 14:25N 25°46' W 080°11'0 0.0
2017-Sep-19 13:55N 25°46' W 080°11'0 0.0
2017-Sep-19 13:28N 25°46' W 080°11'0 0.0
2017-Sep-19 12:58N 25°46' W 080°11'0 0.0
2017-Sep-19 12:28N 25°46' W 080°11'0 0.0
2017-Sep-19 11:55N 25°46' W 080°11'0 0.0
2017-Sep-19 11:28N 25°46' W 080°11'0 0.0
2017-Sep-19 10:52N 25°46' W 080°11'0 0.1
2017-Sep-19 10:28N 25°46' W 080°11'0 0.0
2017-Sep-19 09:25N 25°46' W 080°11'0 0.1
2017-Sep-19 08:58N 25°46' W 080°11'0 0.0
2017-Sep-19 08:28N 25°46' W 080°11'0 0.0
2017-Sep-19 07:58N 25°46' W 080°11'0 0.0
2017-Sep-19 07:28N 25°46' W 080°11'0 0.0
2017-Sep-19 06:52N 25°46' W 080°11'0 0.0
2017-Sep-19 06:22N 25°46' W 080°11'0 0.0
2017-Sep-19 05:52N 25°46' W 080°11'0 0.0
2017-Sep-19 05:28N 25°46' W 080°11'0 0.0
2017-Sep-19 04:58N 25°46' W 080°11'0 0.0
2017-Sep-19 04:25N 25°46' W 080°11'0 0.0
2017-Sep-19 03:58N 25°46' W 080°11'0 0.1
2017-Sep-19 03:22N 25°46' W 080°11'0 0.1
2017-Sep-19 02:58N 25°46' W 080°11'0 0.0
2017-Sep-19 02:25N 25°46' W 080°11'0 0.0
2017-Sep-19 01:58N 25°46' W 080°11'0 0.0
2017-Sep-19 01:28N 25°46' W 080°11'0 0.0
2017-Sep-19 00:58N 25°46' W 080°11'0 0.0
2017-Sep-19 00:25N 25°46' W 080°11'0 0.0
2017-Sep-18 23:58N 25°46' W 080°11'0 0.0
2017-Sep-18 23:28N 25°46' W 080°11'0 0.0
2017-Sep-18 22:55N 25°46' W 080°11'0 0.0
2017-Sep-18 22:28N 25°46' W 080°11'0 0.0
2017-Sep-18 21:46N 25°46' W 080°11'0 0.1
2017-Sep-18 21:28N 25°46' W 080°11'0 0.0
2017-Sep-18 20:55N 25°46' W 080°11'0 0.0
2017-Sep-18 20:28N 25°46' W 080°11'0 0.0
2017-Sep-18 19:58N 25°46' W 080°11'0 0.0
2017-Sep-18 19:22N 25°46' W 080°11'0 0.0
2017-Sep-18 18:58N 25°46' W 080°11'0 0.0
2017-Sep-18 18:22N 25°46' W 080°11'0 0.0
2017-Sep-18 17:58N 25°46' W 080°11'0 0.0
2017-Sep-18 17:28N 25°46' W 080°11'0 0.0
2017-Sep-18 16:58N 25°46' W 080°11'0 0.0
2017-Sep-18 16:22N 25°46' W 080°11'0 0.0
2017-Sep-18 15:52N 25°46' W 080°11'0 0.0
2017-Sep-18 15:28N 25°46' W 080°11'0 0.0
2017-Sep-18 14:52N 25°46' W 080°11'0 0.0
2017-Sep-18 14:28N 25°46' W 080°11'0 0.0
2017-Sep-18 13:58N 25°46' W 080°11'0 0.0
2017-Sep-18 13:28N 25°46' W 080°11'0 0.0
2017-Sep-18 12:55N 25°46' W 080°11'0 0.0
2017-Sep-18 12:22N 25°46' W 080°11'0 0.0
2017-Sep-18 11:58N 25°46' W 080°11'0 0.0
2017-Sep-18 11:25N 25°46' W 080°11'0 0.0
2017-Sep-18 10:52N 25°46' W 080°11'0 0.1
2017-Sep-18 10:28N 25°46' W 080°11'0 0.1
2017-Sep-18 09:58N 25°46' W 080°11'0 0.1
2017-Sep-18 09:13N 25°46' W 080°11'0 0.0
2017-Sep-18 08:40N 25°46' W 080°11'0 0.0
2017-Sep-18 08:28N 25°46' W 080°11'0 0.0
2017-Sep-18 07:58N 25°46' W 080°11'0 0.0
2017-Sep-18 07:28N 25°46' W 080°11'0 0.0
2017-Sep-18 06:58N 25°46' W 080°11'0 0.0
2017-Sep-18 06:28N 25°46' W 080°11'0 0.0
2017-Sep-18 05:58N 25°46' W 080°11'0 0.0
2017-Sep-18 05:28N 25°46' W 080°11'0 0.0
2017-Sep-18 04:55N 25°46' W 080°11'0 0.0
2017-Sep-18 04:28N 25°46' W 080°11'0 0.6
2017-Sep-18 04:00N 25°46' W 080°11'1 0.3
2017-Sep-18 00:34N 25°47' W 080°12'0 4.0
2017-Sep-18 00:30N 25°46' W 080°12'2 3.2
2017-Sep-18 00:00N 25°45' W 080°11'4 2.1
2017-Sep-17 22:18N 25°42' W 080°11'0 0.0
2017-Sep-17 21:12N 25°42' W 080°11'0 0.1
2017-Sep-17 20:44N 25°42' W 080°11'0 0.9
2017-Sep-17 20:28N 25°42' W 080°11'4 8.5
2017-Sep-17 20:00N 25°46' W 080°11'2 3.7
2017-Sep-17 19:29N 25°47' W 080°09'1 2.2
2017-Sep-17 19:00N 25°46' W 080°09'3 6.1
2017-Sep-17 18:28N 25°47' W 080°12'1 2.0
2017-Sep-17 18:00N 25°46' W 080°11'0 0.0
2017-Sep-17 17:30N 25°46' W 080°11'0 0.0
2017-Sep-17 16:57N 25°46' W 080°11'0 0.0
2017-Sep-17 16:30N 25°46' W 080°11'0 0.0
2017-Sep-17 16:00N 25°46' W 080°11'0 0.0
2017-Sep-17 15:30N 25°46' W 080°11'0 0.0
2017-Sep-17 15:00N 25°46' W 080°11'0 0.0
2017-Sep-17 14:30N 25°46' W 080°11'0 0.0
2017-Sep-17 13:57N 25°46' W 080°11'0 0.0
2017-Sep-17 13:27N 25°46' W 080°11'0 0.0
2017-Sep-17 13:00N 25°46' W 080°11'0 0.0
2017-Sep-17 12:30N 25°46' W 080°11'0 0.0
2017-Sep-17 12:00N 25°46' W 080°11'0 0.0
2017-Sep-17 11:27N 25°46' W 080°11'0 0.0
2017-Sep-17 10:57N 25°46' W 080°11'0 0.1
2017-Sep-17 10:27N 25°46' W 080°11'0 0.2
2017-Sep-17 10:00N 25°46' W 080°11'0 0.2
2017-Sep-17 09:30N 25°46' W 080°11'0 0.0
2017-Sep-17 09:00N 25°46' W 080°11'0 0.0
2017-Sep-17 08:30N 25°46' W 080°11'0 0.0
2017-Sep-17 08:00N 25°46' W 080°11'0 0.0
2017-Sep-17 07:27N 25°46' W 080°11'0 0.0
2017-Sep-17 06:54N 25°46' W 080°11'0 0.0
2017-Sep-17 06:30N 25°46' W 080°11'0 0.0
2017-Sep-17 06:00N 25°46' W 080°11'0 0.0
2017-Sep-17 05:30N 25°46' W 080°11'0 0.0
2017-Sep-17 04:57N 25°46' W 080°11'0 0.0
2017-Sep-17 04:30N 25°46' W 080°11'0 0.0
2017-Sep-17 03:57N 25°46' W 080°11'0 0.0
2017-Sep-17 03:30N 25°46' W 080°11'0 0.0
2017-Sep-17 02:54N 25°46' W 080°11'0 0.0
2017-Sep-17 02:30N 25°46' W 080°11'0 0.0
2017-Sep-17 02:00N 25°46' W 080°11'0 0.4
2017-Sep-17 01:30N 25°46' W 080°11'0 0.7
2017-Sep-17 01:00N 25°46' W 080°11'1 1.3
2017-Sep-17 00:30N 25°46' W 080°11'1 1.8
2017-Sep-17 00:00N 25°45' W 080°11'1 1.4
2017-Sep-16 23:29N 25°45' W 080°10'0 0.1
2017-Sep-16 22:56N 25°45' W 080°10'0 0.0
2017-Sep-16 22:20N 25°45' W 080°10'0 0.0
2017-Sep-16 21:56N 25°45' W 080°10'0 0.0
2017-Sep-16 21:23N 25°45' W 080°10'0 0.0
2017-Sep-16 20:59N 25°45' W 080°10'0 0.0
2017-Sep-16 20:26N 25°45' W 080°10'0 0.0
2017-Sep-16 19:59N 25°45' W 080°10'0 0.0
2017-Sep-16 19:26N 25°45' W 080°10'1 3.3
2017-Sep-16 19:00N 25°46' W 080°09'1 1.8
2017-Sep-16 18:31N 25°47' W 080°09'1 1.7
2017-Sep-16 18:00N 25°46' W 080°09'2 4.6
2017-Sep-16 17:28N 25°46' W 080°11'0 0.0
2017-Sep-16 16:59N 25°46' W 080°11'0 0.0
2017-Sep-16 16:29N 25°46' W 080°11'0 0.0
2017-Sep-16 15:59N 25°46' W 080°11'0 0.0
2017-Sep-16 15:29N 25°46' W 080°11'0 0.1
2017-Sep-16 14:59N 25°46' W 080°11'0 0.1
2017-Sep-16 14:29N 25°46' W 080°11'0 0.0
2017-Sep-16 13:56N 25°46' W 080°11'0 0.0
2017-Sep-16 13:29N 25°46' W 080°11'0 0.0
2017-Sep-16 12:59N 25°46' W 080°11'0 0.0
2017-Sep-16 12:29N 25°46' W 080°11'0 0.0
2017-Sep-16 11:59N 25°46' W 080°11'0 0.0
2017-Sep-16 11:29N 25°46' W 080°11'0 0.0
2017-Sep-16 10:59N 25°46' W 080°11'0 0.1
2017-Sep-16 10:29N 25°46' W 080°11'0 0.2
2017-Sep-16 09:59N 25°46' W 080°11'0 0.2
2017-Sep-16 09:29N 25°46' W 080°11'0 0.0
2017-Sep-16 08:59N 25°46' W 080°11'0 0.0
2017-Sep-16 08:26N 25°46' W 080°11'0 0.0
2017-Sep-16 07:59N 25°46' W 080°11'0 0.0
2017-Sep-16 07:29N 25°46' W 080°11'0 0.0
2017-Sep-16 06:59N 25°46' W 080°11'0 0.0
2017-Sep-16 06:29N 25°46' W 080°11'0 0.0
2017-Sep-16 05:59N 25°46' W 080°11'0 0.0
2017-Sep-16 05:29N 25°46' W 080°11'0 0.0
2017-Sep-16 04:59N 25°46' W 080°11'0 0.0
2017-Sep-16 04:29N 25°46' W 080°11'0 0.3
2017-Sep-16 03:53N 25°46' W 080°11'0 0.5
2017-Sep-16 03:30N 25°46' W 080°11'0 0.1
2017-Sep-16 02:51N 25°46' W 080°11'0 0.0
2017-Sep-16 02:30N 25°46' W 080°11'0 0.0
2017-Sep-16 01:57N 25°46' W 080°11'0 0.0
2017-Sep-16 01:30N 25°46' W 080°11'0 0.0
2017-Sep-16 00:57N 25°46' W 080°11'0 0.0
2017-Sep-16 00:27N 25°46' W 080°11'0 0.0
2017-Sep-16 00:00N 25°46' W 080°11'0 0.0
2017-Sep-15 23:30N 25°46' W 080°11'0 0.0
2017-Sep-15 23:00N 25°46' W 080°11'0 0.0
2017-Sep-15 22:27N 25°46' W 080°11'0 0.0
2017-Sep-15 21:57N 25°46' W 080°11'0 0.0
2017-Sep-15 21:21N 25°46' W 080°11'0 0.0
2017-Sep-15 20:57N 25°46' W 080°11'0 0.0
2017-Sep-15 20:27N 25°46' W 080°11'0 0.0
2017-Sep-15 19:57N 25°46' W 080°11'0 0.0
2017-Sep-15 19:30N 25°46' W 080°11'0 0.0
2017-Sep-15 18:57N 25°46' W 080°11'0 0.0
2017-Sep-15 18:24N 25°46' W 080°11'0 0.0
2017-Sep-15 17:57N 25°46' W 080°11'0 0.0
2017-Sep-15 17:30N 25°46' W 080°11'0 0.0
2017-Sep-15 16:57N 25°46' W 080°11'0 0.0
2017-Sep-15 16:27N 25°46' W 080°11'0 0.0
2017-Sep-15 16:00N 25°46' W 080°11'0 0.0
2017-Sep-15 15:27N 25°46' W 080°11'0 0.1
2017-Sep-15 14:57N 25°46' W 080°11'0 0.1
2017-Sep-15 14:30N 25°46' W 080°11'0 0.0
2017-Sep-15 13:57N 25°46' W 080°11'0 0.0
2017-Sep-15 13:30N 25°46' W 080°11'0 0.0
2017-Sep-15 13:00N 25°46' W 080°11'0 0.0
2017-Sep-15 12:27N 25°46' W 080°11'0 0.0
2017-Sep-15 11:57N 25°46' W 080°11'0 0.0
2017-Sep-15 11:30N 25°46' W 080°11'0 0.0
2017-Sep-15 10:57N 25°46' W 080°11'0 0.0
2017-Sep-15 10:27N 25°46' W 080°11'0 0.2
2017-Sep-15 10:00N 25°46' W 080°11'0 0.2
2017-Sep-15 09:21N 25°46' W 080°11'0 0.0
2017-Sep-15 09:00N 25°46' W 080°11'0 0.0
2017-Sep-15 08:30N 25°46' W 080°11'0 0.0
2017-Sep-15 08:00N 25°46' W 080°11'0 0.0
2017-Sep-15 07:30N 25°46' W 080°11'0 0.0
2017-Sep-15 07:00N 25°46' W 080°11'0 0.0
2017-Sep-15 06:30N 25°46' W 080°11'0 0.0
2017-Sep-15 05:57N 25°46' W 080°11'0 0.0
2017-Sep-15 05:30N 25°46' W 080°11'0 0.0
2017-Sep-15 05:00N 25°46' W 080°11'0 0.0
2017-Sep-15 04:27N 25°46' W 080°11'0 0.0
2017-Sep-15 04:00N 25°46' W 080°11'0 0.0
2017-Sep-15 03:30N 25°46' W 080°11'0 0.0
2017-Sep-15 03:00N 25°46' W 080°11'0 0.0
2017-Sep-15 02:27N 25°46' W 080°11'0 0.0
2017-Sep-15 02:00N 25°46' W 080°11'0 0.0
2017-Sep-15 01:27N 25°46' W 080°11'0 0.0
2017-Sep-15 00:51N 25°46' W 080°11'0 0.0
2017-Sep-15 00:30N 25°46' W 080°11'0 0.0
2017-Sep-15 00:00N 25°46' W 080°11'0 0.0
2017-Sep-14 23:27N 25°46' W 080°11'0 0.0
2017-Sep-14 22:57N 25°46' W 080°11'0 0.0
2017-Sep-14 22:27N 25°46' W 080°11'0 0.0
2017-Sep-14 22:00N 25°46' W 080°11'0 0.0
2017-Sep-14 21:24N 25°46' W 080°11'0 0.0
2017-Sep-14 20:57N 25°46' W 080°11'0 0.0
2017-Sep-14 20:27N 25°46' W 080°11'1 1.9
2017-Sep-14 20:00N 25°47' W 080°12'1 2.9
2017-Sep-14 19:30N 25°47' W 080°14'  
Track history (hours):
 
Tides and Currents Weather Stations Pressure Air Temp Water Temp Dewpoint Dewpoint Depression Visibility Wind Speed Wind Dir Waves Ship Positions

Lefturn

Owner: Gallagher, Spencer R, Ft. Lauderdale, FL. More information available from US FCC via Universal Licensing System.

Last reported at 2017-Sep-22 01:55 UTC. Time now 2017-Sep-22 22:42 UTC.
Position N 25°46' W 080°11'.

Length 23 m.

Type: Pleasure craft. MMSI: 367592530.

Date/timePositionNaut miles runAvg speedWind from/ knotsBaromVisibWave heightAir tempDewpointWater temp
2017-Sep-22 01:55N 25°46' W 080°11'0 0.0
2017-Sep-22 01:28N 25°46' W 080°11'0 0.4
2017-Sep-22 01:00N 25°46' W 080°11'3 5.2
2017-Sep-22 00:30N 25°44' W 080°11'2 4.6
2017-Sep-22 00:00N 25°41' W 080°11'0 0.0
2017-Sep-21 23:27N 25°41' W 080°11'0 0.0
2017-Sep-21 22:45N 25°41' W 080°11'0 0.0
2017-Sep-21 22:21N 25°41' W 080°11'0 0.0
2017-Sep-21 20:57N 25°41' W 080°11'2 2.1
2017-Sep-21 20:04N 25°43' W 080°11'2 8.4
2017-Sep-21 19:52N 25°45' W 080°11'1 3.0
2017-Sep-21 19:25N 25°46' W 080°11'0 0.0
2017-Sep-21 18:55N 25°46' W 080°11'0 0.0
2017-Sep-21 18:28N 25°46' W 080°11'0 0.0
2017-Sep-21 17:55N 25°46' W 080°11'0 0.1
2017-Sep-21 17:28N 25°46' W 080°11'0 0.0
2017-Sep-21 16:52N 25°46' W 080°11'0 0.0
2017-Sep-21 16:25N 25°46' W 080°11'0 0.0
2017-Sep-21 15:55N 25°46' W 080°11'0 0.0
2017-Sep-21 15:28N 25°46' W 080°11'0 0.1
2017-Sep-21 14:58N 25°46' W 080°11'0 0.0
2017-Sep-21 14:19N 25°46' W 080°11'0 0.0
2017-Sep-21 13:55N 25°46' W 080°11'0 0.0
2017-Sep-21 13:13N 25°46' W 080°11'0 0.0
2017-Sep-21 12:49N 25°46' W 080°11'0 0.0
2017-Sep-21 12:28N 25°46' W 080°11'0 0.0
2017-Sep-21 11:43N 25°46' W 080°11'0 0.0
2017-Sep-21 11:28N 25°46' W 080°11'0 0.0
2017-Sep-21 10:49N 25°46' W 080°11'0 0.0
2017-Sep-21 10:25N 25°46' W 080°11'0 0.0
2017-Sep-21 09:55N 25°46' W 080°11'0 0.0
2017-Sep-21 09:13N 25°46' W 080°11'0 0.0
2017-Sep-21 08:55N 25°46' W 080°11'0 0.0
2017-Sep-21 08:25N 25°46' W 080°11'0 0.0
2017-Sep-21 07:55N 25°46' W 080°11'0 0.0
2017-Sep-21 07:22N 25°46' W 080°11'0 0.0
2017-Sep-21 06:49N 25°46' W 080°11'0 0.0
2017-Sep-21 06:28N 25°46' W 080°11'0 0.0
2017-Sep-21 05:49N 25°46' W 080°11'0 0.0
2017-Sep-21 05:28N 25°46' W 080°11'0 0.0
2017-Sep-21 04:52N 25°46' W 080°11'0 0.0
2017-Sep-21 04:16N 25°46' W 080°11'0 0.0
2017-Sep-21 03:49N 25°46' W 080°11'0 0.0
2017-Sep-21 03:28N 25°46' W 080°11'0 0.0
2017-Sep-21 02:52N 25°46' W 080°11'0 0.0
2017-Sep-21 02:28N 25°46' W 080°11'0 0.0
2017-Sep-21 01:52N 25°46' W 080°11'0 0.0
2017-Sep-21 01:25N 25°46' W 080°11'0 0.0
2017-Sep-21 00:58N 25°46' W 080°11'0 0.0
2017-Sep-21 00:28N 25°46' W 080°11'0 0.0
2017-Sep-20 23:46N 25°46' W 080°11'0 0.0
2017-Sep-20 23:28N 25°46' W 080°11'0 0.0
2017-Sep-20 22:55N 25°46' W 080°11'0 0.0
2017-Sep-20 22:25N 25°46' W 080°11'0 0.0
2017-Sep-20 21:55N 25°46' W 080°11'2 6.0
2017-Sep-20 21:30N 25°46' W 080°09'1 2.4
2017-Sep-20 20:58N 25°47' W 080°09'1 3.2
2017-Sep-20 20:30N 25°46' W 080°11'5 1.0
2017-Sep-20 15:19N 25°41' W 080°11'2 6.3
2017-Sep-20 14:58N 25°44' W 080°11'3 2.7
2017-Sep-20 14:00N 25°46' W 080°12'0 0.4
2017-Sep-20 13:28N 25°46' W 080°11'0 0.0
2017-Sep-20 12:58N 25°46' W 080°11'0 0.0
2017-Sep-20 12:28N 25°46' W 080°11'0 0.0
2017-Sep-20 11:58N 25°46' W 080°11'0 0.0
2017-Sep-20 11:28N 25°46' W 080°11'0 0.0
2017-Sep-20 10:58N 25°46' W 080°11'0 0.0
2017-Sep-20 10:28N 25°46' W 080°11'0 0.0
2017-Sep-20 09:58N 25°46' W 080°11'0 0.0
2017-Sep-20 09:28N 25°46' W 080°11'0 0.0
2017-Sep-20 08:58N 25°46' W 080°11'0 0.0
2017-Sep-20 08:25N 25°46' W 080°11'0 0.0
2017-Sep-20 07:58N 25°46' W 080°11'0 0.0
2017-Sep-20 07:28N 25°46' W 080°11'0 0.0
2017-Sep-20 06:58N 25°46' W 080°11'0 0.0
2017-Sep-20 06:22N 25°46' W 080°11'0 0.0
2017-Sep-20 05:58N 25°46' W 080°11'0 0.0
2017-Sep-20 05:25N 25°46' W 080°11'0 0.0
2017-Sep-20 04:58N 25°46' W 080°11'0 0.0
2017-Sep-20 04:22N 25°46' W 080°11'0 0.0
2017-Sep-20 03:52N 25°46' W 080°11'0 0.0
2017-Sep-20 03:28N 25°46' W 080°11'0 0.0
2017-Sep-20 02:58N 25°46' W 080°11'0 0.0
2017-Sep-20 02:28N 25°46' W 080°11'0 0.0
2017-Sep-20 01:52N 25°46' W 080°11'0 0.0
2017-Sep-20 01:28N 25°46' W 080°11'0 0.0
2017-Sep-20 00:58N 25°46' W 080°11'0 0.0
2017-Sep-20 00:25N 25°46' W 080°11'0 0.0
2017-Sep-19 23:58N 25°46' W 080°11'0 0.0
2017-Sep-19 23:28N 25°46' W 080°11'0 0.0
2017-Sep-19 22:58N 25°46' W 080°11'0 0.0
2017-Sep-19 22:22N 25°46' W 080°11'0 0.0
2017-Sep-19 21:52N 25°46' W 080°11'0 0.0
2017-Sep-19 21:28N 25°46' W 080°11'0 0.0
2017-Sep-19 20:58N 25°46' W 080°11'0 0.0
2017-Sep-19 20:28N 25°46' W 080°11'0 0.0
2017-Sep-19 19:58N 25°46' W 080°11'0 0.1
2017-Sep-19 19:28N 25°46' W 080°11'0 0.0
2017-Sep-19 18:58N 25°46' W 080°11'0 0.0
2017-Sep-19 18:28N 25°46' W 080°11'0 0.0
2017-Sep-19 17:58N 25°46' W 080°11'0 0.0
2017-Sep-19 17:25N 25°46' W 080°11'0 0.0
2017-Sep-19 16:58N 25°46' W 080°11'0 0.0
2017-Sep-19 16:28N 25°46' W 080°11'0 0.0
2017-Sep-19 15:58N 25°46' W 080°11'0 0.0
2017-Sep-19 15:28N 25°46' W 080°11'0 0.0
2017-Sep-19 14:55N 25°46' W 080°11'0 0.0
2017-Sep-19 14:25N 25°46' W 080°11'0 0.0
2017-Sep-19 13:55N 25°46' W 080°11'0 0.0
2017-Sep-19 13:28N 25°46' W 080°11'0 0.0
2017-Sep-19 12:58N 25°46' W 080°11'0 0.0
2017-Sep-19 12:28N 25°46' W 080°11'0 0.0
2017-Sep-19 11:55N 25°46' W 080°11'0 0.0
2017-Sep-19 11:28N 25°46' W 080°11'0 0.0
2017-Sep-19 10:52N 25°46' W 080°11'0 0.1
2017-Sep-19 10:28N 25°46' W 080°11'0 0.0
2017-Sep-19 09:25N 25°46' W 080°11'0 0.1
2017-Sep-19 08:58N 25°46' W 080°11'0 0.0
2017-Sep-19 08:28N 25°46' W 080°11'0 0.0
2017-Sep-19 07:58N 25°46' W 080°11'0 0.0
2017-Sep-19 07:28N 25°46' W 080°11'0 0.0
2017-Sep-19 06:52N 25°46' W 080°11'0 0.0
2017-Sep-19 06:22N 25°46' W 080°11'0 0.0
2017-Sep-19 05:52N 25°46' W 080°11'0 0.0
2017-Sep-19 05:28N 25°46' W 080°11'0 0.0
2017-Sep-19 04:58N 25°46' W 080°11'0 0.0
2017-Sep-19 04:25N 25°46' W 080°11'0 0.0
2017-Sep-19 03:58N 25°46' W 080°11'0 0.1
2017-Sep-19 03:22N 25°46' W 080°11'0 0.1
2017-Sep-19 02:58N 25°46' W 080°11'0 0.0
2017-Sep-19 02:25N 25°46' W 080°11'0 0.0
2017-Sep-19 01:58N 25°46' W 080°11'0 0.0
2017-Sep-19 01:28N 25°46' W 080°11'0 0.0
2017-Sep-19 00:58N 25°46' W 080°11'0 0.0
2017-Sep-19 00:25N 25°46' W 080°11'0 0.0
2017-Sep-18 23:58N 25°46' W 080°11'0 0.0
2017-Sep-18 23:28N 25°46' W 080°11'0 0.0
2017-Sep-18 22:55N 25°46' W 080°11'0 0.0
2017-Sep-18 22:28N 25°46' W 080°11'0 0.0
2017-Sep-18 21:46N 25°46' W 080°11'0 0.1
2017-Sep-18 21:28N 25°46' W 080°11'0 0.0
2017-Sep-18 20:55N 25°46' W 080°11'0 0.0
2017-Sep-18 20:28N 25°46' W 080°11'0 0.0
2017-Sep-18 19:58N 25°46' W 080°11'0 0.0
2017-Sep-18 19:22N 25°46' W 080°11'0 0.0
2017-Sep-18 18:58N 25°46' W 080°11'0 0.0
2017-Sep-18 18:22N 25°46' W 080°11'0 0.0
2017-Sep-18 17:58N 25°46' W 080°11'0 0.0
2017-Sep-18 17:28N 25°46' W 080°11'0 0.0
2017-Sep-18 16:58N 25°46' W 080°11'0 0.0
2017-Sep-18 16:22N 25°46' W 080°11'0 0.0
2017-Sep-18 15:52N 25°46' W 080°11'0 0.0
2017-Sep-18 15:28N 25°46' W 080°11'0 0.0
2017-Sep-18 14:52N 25°46' W 080°11'0 0.0
2017-Sep-18 14:28N 25°46' W 080°11'0 0.0
2017-Sep-18 13:58N 25°46' W 080°11'0 0.0
2017-Sep-18 13:28N 25°46' W 080°11'0 0.0
2017-Sep-18 12:55N 25°46' W 080°11'0 0.0
2017-Sep-18 12:22N 25°46' W 080°11'0 0.0
2017-Sep-18 11:58N 25°46' W 080°11'0 0.0
2017-Sep-18 11:25N 25°46' W 080°11'0 0.0
2017-Sep-18 10:52N 25°46' W 080°11'0 0.1
2017-Sep-18 10:28N 25°46' W 080°11'0 0.1
2017-Sep-18 09:58N 25°46' W 080°11'0 0.1
2017-Sep-18 09:13N 25°46' W 080°11'0 0.0
2017-Sep-18 08:40N 25°46' W 080°11'0 0.0
2017-Sep-18 08:28N 25°46' W 080°11'0 0.0
2017-Sep-18 07:58N 25°46' W 080°11'0 0.0
2017-Sep-18 07:28N 25°46' W 080°11'0 0.0
2017-Sep-18 06:58N 25°46' W 080°11'0 0.0
2017-Sep-18 06:28N 25°46' W 080°11'0 0.0
2017-Sep-18 05:58N 25°46' W 080°11'0 0.0
2017-Sep-18 05:28N 25°46' W 080°11'0 0.0
2017-Sep-18 04:55N 25°46' W 080°11'0 0.0
2017-Sep-18 04:28N 25°46' W 080°11'0 0.6
2017-Sep-18 04:00N 25°46' W 080°11'1 0.3
2017-Sep-18 00:34N 25°47' W 080°12'0 4.0
2017-Sep-18 00:30N 25°46' W 080°12'2 3.2
2017-Sep-18 00:00N 25°45' W 080°11'4 2.1
2017-Sep-17 22:18N 25°42' W 080°11'0 0.0
2017-Sep-17 21:12N 25°42' W 080°11'0 0.1
2017-Sep-17 20:44N 25°42' W 080°11'0 0.9
2017-Sep-17 20:28N 25°42' W 080°11'4 8.5
2017-Sep-17 20:00N 25°46' W 080°11'2 3.7
2017-Sep-17 19:29N 25°47' W 080°09'1 2.2
2017-Sep-17 19:00N 25°46' W 080°09'3 6.1
2017-Sep-17 18:28N 25°47' W 080°12'1 2.0
2017-Sep-17 18:00N 25°46' W 080°11'0 0.0
2017-Sep-17 17:30N 25°46' W 080°11'0 0.0
2017-Sep-17 16:57N 25°46' W 080°11'0 0.0
2017-Sep-17 16:30N 25°46' W 080°11'0 0.0
2017-Sep-17 16:00N 25°46' W 080°11'0 0.0
2017-Sep-17 15:30N 25°46' W 080°11'0 0.0
2017-Sep-17 15:00N 25°46' W 080°11'0 0.0
2017-Sep-17 14:30N 25°46' W 080°11'0 0.0
2017-Sep-17 13:57N 25°46' W 080°11'0 0.0
2017-Sep-17 13:27N 25°46' W 080°11'0 0.0
2017-Sep-17 13:00N 25°46' W 080°11'0 0.0
2017-Sep-17 12:30N 25°46' W 080°11'0 0.0
2017-Sep-17 12:00N 25°46' W 080°11'0 0.0
2017-Sep-17 11:27N 25°46' W 080°11'0 0.0
2017-Sep-17 10:57N 25°46' W 080°11'0 0.1
2017-Sep-17 10:27N 25°46' W 080°11'0 0.2
2017-Sep-17 10:00N 25°46' W 080°11'0 0.2
2017-Sep-17 09:30N 25°46' W 080°11'0 0.0
2017-Sep-17 09:00N 25°46' W 080°11'0 0.0
2017-Sep-17 08:30N 25°46' W 080°11'0 0.0
2017-Sep-17 08:00N 25°46' W 080°11'0 0.0
2017-Sep-17 07:27N 25°46' W 080°11'0 0.0
2017-Sep-17 06:54N 25°46' W 080°11'0 0.0
2017-Sep-17 06:30N 25°46' W 080°11'0 0.0
2017-Sep-17 06:00N 25°46' W 080°11'0 0.0
2017-Sep-17 05:30N 25°46' W 080°11'0 0.0
2017-Sep-17 04:57N 25°46' W 080°11'0 0.0
2017-Sep-17 04:30N 25°46' W 080°11'0 0.0
2017-Sep-17 03:57N 25°46' W 080°11'0 0.0
2017-Sep-17 03:30N 25°46' W 080°11'0 0.0
2017-Sep-17 02:54N 25°46' W 080°11'0 0.0
2017-Sep-17 02:30N 25°46' W 080°11'0 0.0
2017-Sep-17 02:00N 25°46' W 080°11'0 0.4
2017-Sep-17 01:30N 25°46' W 080°11'0 0.7
2017-Sep-17 01:00N 25°46' W 080°11'1 1.3
2017-Sep-17 00:30N 25°46' W 080°11'1 1.8
2017-Sep-17 00:00N 25°45' W 080°11'1 1.4
2017-Sep-16 23:29N 25°45' W 080°10'0 0.1
2017-Sep-16 22:56N 25°45' W 080°10'0 0.0
2017-Sep-16 22:20N 25°45' W 080°10'0 0.0
2017-Sep-16 21:56N 25°45' W 080°10'0 0.0
2017-Sep-16 21:23N 25°45' W 080°10'0 0.0
2017-Sep-16 20:59N 25°45' W 080°10'0 0.0
2017-Sep-16 20:26N 25°45' W 080°10'0 0.0
2017-Sep-16 19:59N 25°45' W 080°10'0 0.0
2017-Sep-16 19:26N 25°45' W 080°10'1 3.3
2017-Sep-16 19:00N 25°46' W 080°09'1 1.8
2017-Sep-16 18:31N 25°47' W 080°09'1 1.7
2017-Sep-16 18:00N 25°46' W 080°09'2 4.6
2017-Sep-16 17:28N 25°46' W 080°11'0 0.0
2017-Sep-16 16:59N 25°46' W 080°11'0 0.0
2017-Sep-16 16:29N 25°46' W 080°11'0 0.0
2017-Sep-16 15:59N 25°46' W 080°11'0 0.0
2017-Sep-16 15:29N 25°46' W 080°11'0 0.1
2017-Sep-16 14:59N 25°46' W 080°11'0 0.1
2017-Sep-16 14:29N 25°46' W 080°11'0 0.0
2017-Sep-16 13:56N 25°46' W 080°11'0 0.0
2017-Sep-16 13:29N 25°46' W 080°11'0 0.0
2017-Sep-16 12:59N 25°46' W 080°11'0 0.0
2017-Sep-16 12:29N 25°46' W 080°11'0 0.0
2017-Sep-16 11:59N 25°46' W 080°11'0 0.0
2017-Sep-16 11:29N 25°46' W 080°11'0 0.0
2017-Sep-16 10:59N 25°46' W 080°11'0 0.1
2017-Sep-16 10:29N 25°46' W 080°11'0 0.2
2017-Sep-16 09:59N 25°46' W 080°11'0 0.2
2017-Sep-16 09:29N 25°46' W 080°11'0 0.0
2017-Sep-16 08:59N 25°46' W 080°11'0 0.0
2017-Sep-16 08:26N 25°46' W 080°11'0 0.0
2017-Sep-16 07:59N 25°46' W 080°11'0 0.0
2017-Sep-16 07:29N 25°46' W 080°11'0 0.0
2017-Sep-16 06:59N 25°46' W 080°11'0 0.0
2017-Sep-16 06:29N 25°46' W 080°11'0 0.0
2017-Sep-16 05:59N 25°46' W 080°11'0 0.0
2017-Sep-16 05:29N 25°46' W 080°11'0 0.0
2017-Sep-16 04:59N 25°46' W 080°11'0 0.0
2017-Sep-16 04:29N 25°46' W 080°11'0 0.3
2017-Sep-16 03:53N 25°46' W 080°11'0 0.5
2017-Sep-16 03:30N 25°46' W 080°11'0 0.1
2017-Sep-16 02:51N 25°46' W 080°11'0 0.0
2017-Sep-16 02:30N 25°46' W 080°11'0 0.0
2017-Sep-16 01:57N 25°46' W 080°11'0 0.0
2017-Sep-16 01:30N 25°46' W 080°11'0 0.0
2017-Sep-16 00:57N 25°46' W 080°11'0 0.0
2017-Sep-16 00:27N 25°46' W 080°11'0 0.0
2017-Sep-16 00:00N 25°46' W 080°11'0 0.0
2017-Sep-15 23:30N 25°46' W 080°11'0 0.0
2017-Sep-15 23:00N 25°46' W 080°11'0 0.0
2017-Sep-15 22:27N 25°46' W 080°11'0 0.0
2017-Sep-15 21:57N 25°46' W 080°11'0 0.0
2017-Sep-15 21:21N 25°46' W 080°11'0 0.0
2017-Sep-15 20:57N 25°46' W 080°11'0 0.0
2017-Sep-15 20:27N 25°46' W 080°11'0 0.0
2017-Sep-15 19:57N 25°46' W 080°11'0 0.0
2017-Sep-15 19:30N 25°46' W 080°11'0 0.0
2017-Sep-15 18:57N 25°46' W 080°11'0 0.0
2017-Sep-15 18:24N 25°46' W 080°11'0 0.0
2017-Sep-15 17:57N 25°46' W 080°11'0 0.0
2017-Sep-15 17:30N 25°46' W 080°11'0 0.0
2017-Sep-15 16:57N 25°46' W 080°11'0 0.0
2017-Sep-15 16:27N 25°46' W 080°11'0 0.0
2017-Sep-15 16:00N 25°46' W 080°11'0 0.0
2017-Sep-15 15:27N 25°46' W 080°11'0 0.1
2017-Sep-15 14:57N 25°46' W 080°11'0 0.1
2017-Sep-15 14:30N 25°46' W 080°11'0 0.0
2017-Sep-15 13:57N 25°46' W 080°11'0 0.0
2017-Sep-15 13:30N 25°46' W 080°11'0 0.0
2017-Sep-15 13:00N 25°46' W 080°11'0 0.0
2017-Sep-15 12:27N 25°46' W 080°11'0 0.0
2017-Sep-15 11:57N 25°46' W 080°11'0 0.0
2017-Sep-15 11:30N 25°46' W 080°11'0 0.0
2017-Sep-15 10:57N 25°46' W 080°11'0 0.0
2017-Sep-15 10:27N 25°46' W 080°11'0 0.2
2017-Sep-15 10:00N 25°46' W 080°11'0 0.2
2017-Sep-15 09:21N 25°46' W 080°11'0 0.0
2017-Sep-15 09:00N 25°46' W 080°11'0 0.0
2017-Sep-15 08:30N 25°46' W 080°11'0 0.0
2017-Sep-15 08:00N 25°46' W 080°11'0 0.0
2017-Sep-15 07:30N 25°46' W 080°11'0 0.0
2017-Sep-15 07:00N 25°46' W 080°11'0 0.0
2017-Sep-15 06:30N 25°46' W 080°11'0 0.0
2017-Sep-15 05:57N 25°46' W 080°11'0 0.0
2017-Sep-15 05:30N 25°46' W 080°11'0 0.0
2017-Sep-15 05:00N 25°46' W 080°11'0 0.0
2017-Sep-15 04:27N 25°46' W 080°11'0 0.0
2017-Sep-15 04:00N 25°46' W 080°11'0 0.0
2017-Sep-15 03:30N 25°46' W 080°11'0 0.0
2017-Sep-15 03:00N 25°46' W 080°11'0 0.0
2017-Sep-15 02:27N 25°46' W 080°11'0 0.0
2017-Sep-15 02:00N 25°46' W 080°11'0 0.0
2017-Sep-15 01:27N 25°46' W 080°11'0 0.0
2017-Sep-15 00:51N 25°46' W 080°11'0 0.0
2017-Sep-15 00:30N 25°46' W 080°11'0 0.0
2017-Sep-15 00:00N 25°46' W 080°11'0 0.0
2017-Sep-14 23:27N 25°46' W 080°11'0 0.0
2017-Sep-14 22:57N 25°46' W 080°11'0 0.0
2017-Sep-14 22:27N 25°46' W 080°11'0 0.0
2017-Sep-14 22:00N 25°46' W 080°11'0 0.0
2017-Sep-14 21:24N 25°46' W 080°11'0 0.0
2017-Sep-14 20:57N 25°46' W 080°11'0 0.0
2017-Sep-14 20:27N 25°46' W 080°11'1 1.9
2017-Sep-14 20:00N 25°47' W 080°12'1 2.9
2017-Sep-14 19:30N 25°47' W 080°14'  

Dump ship's entire track history